sensor_id;sensor_type;location;lat;lon;timestamp;P1;durP1;ratioP1;P2;durP2;ratioP2
71814;SDS011;59659;41.520;23.794;2024-01-07T00:00:37;55.28;;;23.63;;
71814;SDS011;59659;41.520;23.794;2024-01-07T00:01:49;56.58;;;25.13;;
71814;SDS011;59659;41.520;23.794;2024-01-07T00:03:01;50.72;;;23.45;;
71814;SDS011;59659;41.520;23.794;2024-01-07T00:04:14;47.03;;;22.33;;
71814;SDS011;59659;41.520;23.794;2024-01-07T00:05:25;50.30;;;24.33;;
71814;SDS011;59659;41.520;23.794;2024-01-07T00:06:37;41.85;;;20.55;;
71814;SDS011;59659;41.520;23.794;2024-01-07T00:07:48;45.33;;;20.45;;
71814;SDS011;59659;41.520;23.794;2024-01-07T00:09:02;34.30;;;19.58;;
71814;SDS011;59659;41.520;23.794;2024-01-07T00:10:13;33.22;;;17.75;;
71814;SDS011;59659;41.520;23.794;2024-01-07T00:11:25;40.15;;;18.73;;
71814;SDS011;59659;41.520;23.794;2024-01-07T00:12:36;50.08;;;21.13;;
71814;SDS011;59659;41.520;23.794;2024-01-07T00:13:48;58.13;;;21.45;;
71814;SDS011;59659;41.520;23.794;2024-01-07T00:15:00;39.42;;;20.42;;
71814;SDS011;59659;41.520;23.794;2024-01-07T00:16:11;39.80;;;18.67;;
71814;SDS011;59659;41.520;23.794;2024-01-07T00:17:23;38.25;;;17.40;;
71814;SDS011;59659;41.520;23.794;2024-01-07T00:18:34;52.13;;;20.17;;
71814;SDS011;59659;41.520;23.794;2024-01-07T00:19:46;41.45;;;18.25;;
71814;SDS011;59659;41.520;23.794;2024-01-07T00:20:58;45.40;;;21.90;;
71814;SDS011;59659;41.520;23.794;2024-01-07T00:22:09;43.92;;;19.38;;
71814;SDS011;59659;41.520;23.794;2024-01-07T00:23:21;43.05;;;20.35;;
71814;SDS011;59659;41.520;23.794;2024-01-07T00:24:33;42.88;;;19.27;;
71814;SDS011;59659;41.520;23.794;2024-01-07T00:25:44;43.08;;;19.50;;
71814;SDS011;59659;41.520;23.794;2024-01-07T00:26:56;46.50;;;19.38;;
71814;SDS011;59659;41.520;23.794;2024-01-07T00:28:07;38.10;;;19.27;;
71814;SDS011;59659;41.520;23.794;2024-01-07T00:29:19;50.97;;;19.77;;
71814;SDS011;59659;41.520;23.794;2024-01-07T00:30:31;88.80;;;21.90;;
71814;SDS011;59659;41.520;23.794;2024-01-07T00:31:42;41.33;;;18.48;;
71814;SDS011;59659;41.520;23.794;2024-01-07T00:32:54;54.35;;;20.55;;
71814;SDS011;59659;41.520;23.794;2024-01-07T00:34:05;46.72;;;19.73;;
71814;SDS011;59659;41.520;23.794;2024-01-07T00:35:17;52.90;;;21.13;;
71814;SDS011;59659;41.520;23.794;2024-01-07T00:36:30;44.55;;;20.48;;
71814;SDS011;59659;41.520;23.794;2024-01-07T00:37:41;43.30;;;20.73;;
71814;SDS011;59659;41.520;23.794;2024-01-07T00:38:53;45.72;;;18.35;;
71814;SDS011;59659;41.520;23.794;2024-01-07T00:40:04;42.17;;;18.85;;
71814;SDS011;59659;41.520;23.794;2024-01-07T00:41:16;39.70;;;18.38;;
71814;SDS011;59659;41.520;23.794;2024-01-07T00:42:28;39.28;;;16.70;;
71814;SDS011;59659;41.520;23.794;2024-01-07T00:43:40;31.23;;;16.08;;
71814;SDS011;59659;41.520;23.794;2024-01-07T00:44:52;26.85;;;13.93;;
71814;SDS011;59659;41.520;23.794;2024-01-07T00:46:03;28.92;;;14.20;;
71814;SDS011;59659;41.520;23.794;2024-01-07T00:47:15;32.83;;;15.18;;
71814;SDS011;59659;41.520;23.794;2024-01-07T00:48:27;30.45;;;16.45;;
71814;SDS011;59659;41.520;23.794;2024-01-07T00:49:39;33.35;;;16.65;;
71814;SDS011;59659;41.520;23.794;2024-01-07T00:50:51;29.85;;;14.73;;
71814;SDS011;59659;41.520;23.794;2024-01-07T00:52:03;28.15;;;14.10;;
71814;SDS011;59659;41.520;23.794;2024-01-07T00:53:15;41.80;;;15.60;;
71814;SDS011;59659;41.520;23.794;2024-01-07T00:54:26;33.55;;;13.60;;
71814;SDS011;59659;41.520;23.794;2024-01-07T00:55:38;25.75;;;12.45;;
71814;SDS011;59659;41.520;23.794;2024-01-07T00:56:49;25.95;;;12.05;;
71814;SDS011;59659;41.520;23.794;2024-01-07T00:58:01;24.73;;;11.10;;
71814;SDS011;59659;41.520;23.794;2024-01-07T00:59:13;22.25;;;11.43;;
71814;SDS011;59659;41.520;23.794;2024-01-07T01:00:25;19.70;;;10.40;;
71814;SDS011;59659;41.520;23.794;2024-01-07T01:01:38;22.98;;;10.07;;
71814;SDS011;59659;41.520;23.794;2024-01-07T01:02:49;24.67;;;11.95;;
71814;SDS011;59659;41.520;23.794;2024-01-07T01:04:01;21.25;;;10.20;;
71814;SDS011;59659;41.520;23.794;2024-01-07T01:05:13;17.92;;;7.72;;
71814;SDS011;59659;41.520;23.794;2024-01-07T01:06:24;13.65;;;7.65;;
71814;SDS011;59659;41.520;23.794;2024-01-07T01:07:36;21.15;;;8.13;;
71814;SDS011;59659;41.520;23.794;2024-01-07T01:08:47;15.43;;;8.23;;
71814;SDS011;59659;41.520;23.794;2024-01-07T01:09:59;19.45;;;10.45;;
71814;SDS011;59659;41.520;23.794;2024-01-07T01:11:11;15.93;;;8.30;;
71814;SDS011;59659;41.520;23.794;2024-01-07T01:12:22;19.58;;;9.07;;
71814;SDS011;59659;41.520;23.794;2024-01-07T01:13:34;15.70;;;8.48;;
71814;SDS011;59659;41.520;23.794;2024-01-07T01:14:45;16.33;;;8.50;;
71814;SDS011;59659;41.520;23.794;2024-01-07T01:15:57;18.08;;;7.75;;
71814;SDS011;59659;41.520;23.794;2024-01-07T01:17:09;22.48;;;8.82;;
71814;SDS011;59659;41.520;23.794;2024-01-07T01:18:20;17.20;;;7.90;;
71814;SDS011;59659;41.520;23.794;2024-01-07T01:19:32;15.05;;;7.93;;
71814;SDS011;59659;41.520;23.794;2024-01-07T01:20:44;11.63;;;6.15;;
71814;SDS011;59659;41.520;23.794;2024-01-07T01:21:55;14.30;;;6.68;;
71814;SDS011;59659;41.520;23.794;2024-01-07T01:23:07;12.57;;;5.50;;
71814;SDS011;59659;41.520;23.794;2024-01-07T01:24:19;6.72;;;4.50;;
71814;SDS011;59659;41.520;23.794;2024-01-07T01:25:30;8.20;;;4.72;;
71814;SDS011;59659;41.520;23.794;2024-01-07T01:26:42;9.43;;;5.07;;
71814;SDS011;59659;41.520;23.794;2024-01-07T01:27:53;13.10;;;5.22;;
71814;SDS011;59659;41.520;23.794;2024-01-07T01:29:05;27.80;;;9.35;;
71814;SDS011;59659;41.520;23.794;2024-01-07T01:30:17;17.65;;;9.23;;
71814;SDS011;59659;41.520;23.794;2024-01-07T01:31:28;16.02;;;8.43;;
71814;SDS011;59659;41.520;23.794;2024-01-07T01:32:41;24.98;;;11.05;;
71814;SDS011;59659;41.520;23.794;2024-01-07T01:33:52;18.50;;;7.68;;
71814;SDS011;59659;41.520;23.794;2024-01-07T01:35:04;10.38;;;7.25;;
71814;SDS011;59659;41.520;23.794;2024-01-07T01:36:16;14.95;;;7.50;;
71814;SDS011;59659;41.520;23.794;2024-01-07T01:37:28;16.48;;;7.75;;
71814;SDS011;59659;41.520;23.794;2024-01-07T01:38:39;16.73;;;6.72;;
71814;SDS011;59659;41.520;23.794;2024-01-07T01:39:51;16.90;;;6.20;;
71814;SDS011;59659;41.520;23.794;2024-01-07T01:41:02;11.73;;;6.18;;
71814;SDS011;59659;41.520;23.794;2024-01-07T01:42:14;14.25;;;4.47;;
71814;SDS011;59659;41.520;23.794;2024-01-07T01:43:26;6.93;;;1.80;;
71814;SDS011;59659;41.520;23.794;2024-01-07T01:44:38;6.20;;;2.15;;
71814;SDS011;59659;41.520;23.794;2024-01-07T01:45:50;5.57;;;1.45;;
71814;SDS011;59659;41.520;23.794;2024-01-07T01:47:02;4.95;;;1.00;;
71814;SDS011;59659;41.520;23.794;2024-01-07T01:48:14;5.03;;;0.80;;
71814;SDS011;59659;41.520;23.794;2024-01-07T01:49:26;1.27;;;0.68;;
71814;SDS011;59659;41.520;23.794;2024-01-07T01:50:37;0.63;;;0.50;;
71814;SDS011;59659;41.520;23.794;2024-01-07T01:51:49;1.92;;;0.88;;
71814;SDS011;59659;41.520;23.794;2024-01-07T01:53:01;0.57;;;0.50;;
71814;SDS011;59659;41.520;23.794;2024-01-07T01:54:13;0.75;;;0.50;;
71814;SDS011;59659;41.520;23.794;2024-01-07T01:55:25;0.50;;;0.40;;
71814;SDS011;59659;41.520;23.794;2024-01-07T01:56:36;0.60;;;0.60;;
71814;SDS011;59659;41.520;23.794;2024-01-07T01:57:48;1.33;;;0.70;;
71814;SDS011;59659;41.520;23.794;2024-01-07T01:59:00;2.47;;;0.93;;
71814;SDS011;59659;41.520;23.794;2024-01-07T02:00:11;2.10;;;0.85;;
71814;SDS011;59659;41.520;23.794;2024-01-07T02:01:23;4.10;;;0.77;;
71814;SDS011;59659;41.520;23.794;2024-01-07T02:02:35;1.92;;;0.35;;
71814;SDS011;59659;41.520;23.794;2024-01-07T02:03:47;2.65;;;0.60;;
71814;SDS011;59659;41.520;23.794;2024-01-07T02:04:58;0.35;;;0.35;;
71814;SDS011;59659;41.520;23.794;2024-01-07T02:06:10;0.50;;;0.40;;
71814;SDS011;59659;41.520;23.794;2024-01-07T02:07:26;0.82;;;0.30;;
71814;SDS011;59659;41.520;23.794;2024-01-07T02:08:39;1.05;;;0.55;;
71814;SDS011;59659;41.520;23.794;2024-01-07T02:09:50;2.83;;;0.95;;
71814;SDS011;59659;41.520;23.794;2024-01-07T02:11:18;0.88;;;0.30;;
71814;SDS011;59659;41.520;23.794;2024-01-07T02:12:30;0.20;;;0.20;;
71814;SDS011;59659;41.520;23.794;2024-01-07T02:13:41;0.82;;;0.82;;
71814;SDS011;59659;41.520;23.794;2024-01-07T02:14:53;0.30;;;0.30;;
71814;SDS011;59659;41.520;23.794;2024-01-07T02:16:04;0.95;;;0.50;;
71814;SDS011;59659;41.520;23.794;2024-01-07T02:17:16;0.75;;;0.30;;
71814;SDS011;59659;41.520;23.794;2024-01-07T02:18:28;0.63;;;0.22;;
71814;SDS011;59659;41.520;23.794;2024-01-07T02:19:39;0.22;;;0.20;;
71814;SDS011;59659;41.520;23.794;2024-01-07T02:20:51;0.28;;;0.28;;
71814;SDS011;59659;41.520;23.794;2024-01-07T02:22:03;0.40;;;0.40;;
71814;SDS011;59659;41.520;23.794;2024-01-07T02:23:15;0.75;;;0.45;;
71814;SDS011;59659;41.520;23.794;2024-01-07T02:24:26;1.23;;;0.45;;
71814;SDS011;59659;41.520;23.794;2024-01-07T02:25:38;2.92;;;0.77;;
71814;SDS011;59659;41.520;23.794;2024-01-07T02:26:49;1.30;;;0.30;;
71814;SDS011;59659;41.520;23.794;2024-01-07T02:28:01;0.68;;;0.50;;
71814;SDS011;59659;41.520;23.794;2024-01-07T02:29:13;0.45;;;0.40;;
71814;SDS011;59659;41.520;23.794;2024-01-07T02:30:24;0.93;;;0.30;;
71814;SDS011;59659;41.520;23.794;2024-01-07T02:31:36;0.30;;;0.30;;
71814;SDS011;59659;41.520;23.794;2024-01-07T02:32:48;0.40;;;0.40;;
71814;SDS011;59659;41.520;23.794;2024-01-07T02:33:59;0.35;;;0.32;;
71814;SDS011;59659;41.520;23.794;2024-01-07T02:35:11;0.77;;;0.40;;
71814;SDS011;59659;41.520;23.794;2024-01-07T02:36:22;0.20;;;0.20;;
71814;SDS011;59659;41.520;23.794;2024-01-07T02:37:34;0.30;;;0.30;;
71814;SDS011;59659;41.520;23.794;2024-01-07T02:38:46;0.28;;;0.25;;
71814;SDS011;59659;41.520;23.794;2024-01-07T02:39:57;0.20;;;0.20;;
71814;SDS011;59659;41.520;23.794;2024-01-07T02:41:12;0.20;;;0.20;;
71814;SDS011;59659;41.520;23.794;2024-01-07T02:42:23;1.00;;;0.85;;
71814;SDS011;59659;41.520;23.794;2024-01-07T02:43:35;0.30;;;0.30;;
71814;SDS011;59659;41.520;23.794;2024-01-07T02:44:47;2.05;;;0.45;;
71814;SDS011;59659;41.520;23.794;2024-01-07T02:45:58;0.73;;;0.35;;
71814;SDS011;59659;41.520;23.794;2024-01-07T02:47:10;2.15;;;0.50;;
71814;SDS011;59659;41.520;23.794;2024-01-07T02:48:21;0.65;;;0.40;;
71814;SDS011;59659;41.520;23.794;2024-01-07T02:49:34;1.20;;;0.80;;
71814;SDS011;59659;41.520;23.794;2024-01-07T02:50:45;0.88;;;0.47;;
71814;SDS011;59659;41.520;23.794;2024-01-07T02:51:57;0.93;;;0.45;;
71814;SDS011;59659;41.520;23.794;2024-01-07T02:53:08;0.47;;;0.40;;
71814;SDS011;59659;41.520;23.794;2024-01-07T02:54:22;0.30;;;0.30;;
71814;SDS011;59659;41.520;23.794;2024-01-07T02:55:33;0.30;;;0.30;;
71814;SDS011;59659;41.520;23.794;2024-01-07T02:56:45;0.70;;;0.38;;
71814;SDS011;59659;41.520;23.794;2024-01-07T02:57:58;0.52;;;0.47;;
71814;SDS011;59659;41.520;23.794;2024-01-07T02:59:09;0.80;;;0.55;;
71814;SDS011;59659;41.520;23.794;2024-01-07T03:00:21;5.97;;;1.45;;
71814;SDS011;59659;41.520;23.794;2024-01-07T03:01:32;3.10;;;0.63;;
71814;SDS011;59659;41.520;23.794;2024-01-07T03:02:51;1.75;;;0.73;;
71814;SDS011;59659;41.520;23.794;2024-01-07T03:04:04;0.60;;;0.45;;
71814;SDS011;59659;41.520;23.794;2024-01-07T03:05:16;0.75;;;0.40;;
71814;SDS011;59659;41.520;23.794;2024-01-07T03:06:27;0.45;;;0.40;;
71814;SDS011;59659;41.520;23.794;2024-01-07T03:07:39;0.32;;;0.28;;
71814;SDS011;59659;41.520;23.794;2024-01-07T03:08:51;2.15;;;0.38;;
71814;SDS011;59659;41.520;23.794;2024-01-07T03:10:02;0.22;;;0.22;;
71814;SDS011;59659;41.520;23.794;2024-01-07T03:11:14;0.20;;;0.20;;
71814;SDS011;59659;41.520;23.794;2024-01-07T03:12:25;0.40;;;0.40;;
71814;SDS011;59659;41.520;23.794;2024-01-07T03:13:37;0.40;;;0.32;;
71814;SDS011;59659;41.520;23.794;2024-01-07T03:14:48;2.40;;;0.50;;
71814;SDS011;59659;41.520;23.794;2024-01-07T03:16:00;0.30;;;0.28;;
71814;SDS011;59659;41.520;23.794;2024-01-07T03:17:12;0.47;;;0.47;;
71814;SDS011;59659;41.520;23.794;2024-01-07T03:18:23;1.65;;;0.40;;
71814;SDS011;59659;41.520;23.794;2024-01-07T03:19:35;0.28;;;0.28;;
71814;SDS011;59659;41.520;23.794;2024-01-07T03:20:47;1.05;;;0.60;;
71814;SDS011;59659;41.520;23.794;2024-01-07T03:21:58;0.30;;;0.30;;
71814;SDS011;59659;41.520;23.794;2024-01-07T03:23:10;0.30;;;0.30;;
71814;SDS011;59659;41.520;23.794;2024-01-07T03:24:21;0.20;;;0.20;;
71814;SDS011;59659;41.520;23.794;2024-01-07T03:25:33;2.58;;;0.30;;
71814;SDS011;59659;41.520;23.794;2024-01-07T03:26:44;1.00;;;0.30;;
71814;SDS011;59659;41.520;23.794;2024-01-07T03:27:56;0.95;;;0.47;;
71814;SDS011;59659;41.520;23.794;2024-01-07T03:29:07;1.08;;;0.40;;
71814;SDS011;59659;41.520;23.794;2024-01-07T03:30:19;1.23;;;0.57;;
71814;SDS011;59659;41.520;23.794;2024-01-07T03:31:31;0.35;;;0.20;;
71814;SDS011;59659;41.520;23.794;2024-01-07T03:32:43;0.40;;;0.30;;
71814;SDS011;59659;41.520;23.794;2024-01-07T03:33:54;0.45;;;0.45;;
71814;SDS011;59659;41.520;23.794;2024-01-07T03:35:06;2.95;;;0.95;;
71814;SDS011;59659;41.520;23.794;2024-01-07T03:36:20;31.27;;;8.15;;
71814;SDS011;59659;41.520;23.794;2024-01-07T03:37:31;10.32;;;2.55;;
71814;SDS011;59659;41.520;23.794;2024-01-07T03:38:43;3.90;;;2.03;;
71814;SDS011;59659;41.520;23.794;2024-01-07T03:39:54;5.97;;;2.55;;
71814;SDS011;59659;41.520;23.794;2024-01-07T03:41:06;5.18;;;1.40;;
71814;SDS011;59659;41.520;23.794;2024-01-07T03:42:18;3.80;;;1.05;;
71814;SDS011;59659;41.520;23.794;2024-01-07T03:43:31;1.58;;;1.33;;
71814;SDS011;59659;41.520;23.794;2024-01-07T03:44:42;2.03;;;0.90;;
71814;SDS011;59659;41.520;23.794;2024-01-07T03:45:54;0.57;;;0.55;;
71814;SDS011;59659;41.520;23.794;2024-01-07T03:47:06;0.32;;;0.32;;
71814;SDS011;59659;41.520;23.794;2024-01-07T03:48:17;0.60;;;0.60;;
71814;SDS011;59659;41.520;23.794;2024-01-07T03:49:29;0.35;;;0.35;;
71814;SDS011;59659;41.520;23.794;2024-01-07T03:50:40;0.30;;;0.30;;
71814;SDS011;59659;41.520;23.794;2024-01-07T03:51:52;0.20;;;0.20;;
71814;SDS011;59659;41.520;23.794;2024-01-07T03:53:04;0.30;;;0.30;;
71814;SDS011;59659;41.520;23.794;2024-01-07T03:54:15;0.25;;;0.25;;
71814;SDS011;59659;41.520;23.794;2024-01-07T03:55:27;0.30;;;0.30;;
71814;SDS011;59659;41.520;23.794;2024-01-07T03:56:38;0.30;;;0.30;;
71814;SDS011;59659;41.520;23.794;2024-01-07T03:57:50;0.22;;;0.20;;
71814;SDS011;59659;41.520;23.794;2024-01-07T03:59:01;4.40;;;0.82;;
71814;SDS011;59659;41.520;23.794;2024-01-07T04:00:13;0.30;;;0.30;;
71814;SDS011;59659;41.520;23.794;2024-01-07T04:01:25;0.30;;;0.30;;
71814;SDS011;59659;41.520;23.794;2024-01-07T04:02:36;0.70;;;0.30;;
71814;SDS011;59659;41.520;23.794;2024-01-07T04:03:49;0.35;;;0.30;;
71814;SDS011;59659;41.520;23.794;2024-01-07T04:05:00;0.20;;;0.20;;
71814;SDS011;59659;41.520;23.794;2024-01-07T04:06:12;0.38;;;0.30;;
71814;SDS011;59659;41.520;23.794;2024-01-07T04:07:24;4.57;;;2.25;;
71814;SDS011;59659;41.520;23.794;2024-01-07T04:08:35;0.77;;;0.60;;
71814;SDS011;59659;41.520;23.794;2024-01-07T04:09:47;1.73;;;1.20;;
71814;SDS011;59659;41.520;23.794;2024-01-07T04:10:58;1.02;;;0.73;;
71814;SDS011;59659;41.520;23.794;2024-01-07T04:12:13;0.50;;;0.50;;
71814;SDS011;59659;41.520;23.794;2024-01-07T04:13:24;0.47;;;0.47;;
71814;SDS011;59659;41.520;23.794;2024-01-07T04:14:36;2.78;;;0.55;;
71814;SDS011;59659;41.520;23.794;2024-01-07T04:15:47;0.20;;;0.20;;
71814;SDS011;59659;41.520;23.794;2024-01-07T04:16:59;0.30;;;0.30;;
71814;SDS011;59659;41.520;23.794;2024-01-07T04:18:11;0.88;;;0.20;;
71814;SDS011;59659;41.520;23.794;2024-01-07T04:19:23;0.70;;;0.30;;
71814;SDS011;59659;41.520;23.794;2024-01-07T04:20:34;0.20;;;0.20;;
71814;SDS011;59659;41.520;23.794;2024-01-07T04:21:46;2.50;;;0.47;;
71814;SDS011;59659;41.520;23.794;2024-01-07T04:22:58;2.40;;;0.55;;
71814;SDS011;59659;41.520;23.794;2024-01-07T04:24:09;0.32;;;0.28;;
71814;SDS011;59659;41.520;23.794;2024-01-07T04:25:21;0.20;;;0.20;;
71814;SDS011;59659;41.520;23.794;2024-01-07T04:26:33;0.52;;;0.40;;
71814;SDS011;59659;41.520;23.794;2024-01-07T04:27:44;0.25;;;0.25;;
71814;SDS011;59659;41.520;23.794;2024-01-07T04:28:56;0.20;;;0.20;;
71814;SDS011;59659;41.520;23.794;2024-01-07T04:30:07;0.75;;;0.30;;
71814;SDS011;59659;41.520;23.794;2024-01-07T04:31:19;0.30;;;0.30;;
71814;SDS011;59659;41.520;23.794;2024-01-07T04:32:31;0.47;;;0.47;;
71814;SDS011;59659;41.520;23.794;2024-01-07T04:33:43;0.50;;;0.40;;
71814;SDS011;59659;41.520;23.794;2024-01-07T04:34:54;0.20;;;0.20;;
71814;SDS011;59659;41.520;23.794;2024-01-07T04:36:07;0.20;;;0.20;;
71814;SDS011;59659;41.520;23.794;2024-01-07T04:37:19;0.30;;;0.30;;
71814;SDS011;59659;41.520;23.794;2024-01-07T04:38:30;2.17;;;0.75;;
71814;SDS011;59659;41.520;23.794;2024-01-07T04:39:42;0.20;;;0.20;;
71814;SDS011;59659;41.520;23.794;2024-01-07T04:40:53;0.10;;;0.10;;
71814;SDS011;59659;41.520;23.794;2024-01-07T04:42:05;0.20;;;0.20;;
71814;SDS011;59659;41.520;23.794;2024-01-07T04:43:19;1.02;;;0.30;;
71814;SDS011;59659;41.520;23.794;2024-01-07T04:44:31;0.80;;;0.47;;
71814;SDS011;59659;41.520;23.794;2024-01-07T04:45:42;0.80;;;0.40;;
71814;SDS011;59659;41.520;23.794;2024-01-07T04:46:54;0.60;;;0.60;;
71814;SDS011;59659;41.520;23.794;2024-01-07T04:48:05;3.25;;;1.33;;
71814;SDS011;59659;41.520;23.794;2024-01-07T04:49:17;3.72;;;1.85;;
71814;SDS011;59659;41.520;23.794;2024-01-07T04:50:29;2.33;;;1.67;;
71814;SDS011;59659;41.520;23.794;2024-01-07T04:51:40;2.20;;;1.40;;
71814;SDS011;59659;41.520;23.794;2024-01-07T04:52:52;5.55;;;1.67;;
71814;SDS011;59659;41.520;23.794;2024-01-07T04:54:03;1.40;;;1.23;;
71814;SDS011;59659;41.520;23.794;2024-01-07T04:55:15;2.58;;;1.40;;
71814;SDS011;59659;41.520;23.794;2024-01-07T04:56:26;3.17;;;0.95;;
71814;SDS011;59659;41.520;23.794;2024-01-07T04:57:38;1.50;;;0.70;;
71814;SDS011;59659;41.520;23.794;2024-01-07T04:58:50;0.88;;;0.60;;
71814;SDS011;59659;41.520;23.794;2024-01-07T05:00:01;0.65;;;0.57;;
71814;SDS011;59659;41.520;23.794;2024-01-07T05:01:13;7.43;;;1.30;;
71814;SDS011;59659;41.520;23.794;2024-01-07T05:02:25;1.10;;;0.70;;
71814;SDS011;59659;41.520;23.794;2024-01-07T05:03:36;6.53;;;3.42;;
71814;SDS011;59659;41.520;23.794;2024-01-07T05:04:49;1.17;;;0.98;;
71814;SDS011;59659;41.520;23.794;2024-01-07T05:06:00;1.48;;;0.85;;
71814;SDS011;59659;41.520;23.794;2024-01-07T05:07:13;4.90;;;1.40;;
71814;SDS011;59659;41.520;23.794;2024-01-07T05:08:26;6.40;;;3.85;;
71814;SDS011;59659;41.520;23.794;2024-01-07T05:09:38;3.50;;;2.30;;
71814;SDS011;59659;41.520;23.794;2024-01-07T05:10:50;2.30;;;1.90;;
71814;SDS011;59659;41.520;23.794;2024-01-07T05:12:02;5.18;;;2.28;;
71814;SDS011;59659;41.520;23.794;2024-01-07T05:13:14;5.95;;;2.80;;
71814;SDS011;59659;41.520;23.794;2024-01-07T05:14:25;5.93;;;1.77;;
71814;SDS011;59659;41.520;23.794;2024-01-07T05:15:37;3.47;;;1.33;;
71814;SDS011;59659;41.520;23.794;2024-01-07T05:16:48;2.63;;;1.60;;
71814;SDS011;59659;41.520;23.794;2024-01-07T05:18:00;2.13;;;1.55;;
71814;SDS011;59659;41.520;23.794;2024-01-07T05:19:12;3.42;;;1.80;;
71814;SDS011;59659;41.520;23.794;2024-01-07T05:20:23;2.10;;;1.08;;
71814;SDS011;59659;41.520;23.794;2024-01-07T05:21:35;1.17;;;1.08;;
71814;SDS011;59659;41.520;23.794;2024-01-07T05:22:47;0.70;;;0.70;;
71814;SDS011;59659;41.520;23.794;2024-01-07T05:23:58;0.55;;;0.55;;
71814;SDS011;59659;41.520;23.794;2024-01-07T05:25:10;0.68;;;0.45;;
71814;SDS011;59659;41.520;23.794;2024-01-07T05:26:21;2.03;;;1.58;;
71814;SDS011;59659;41.520;23.794;2024-01-07T05:27:33;2.45;;;1.40;;
71814;SDS011;59659;41.520;23.794;2024-01-07T05:28:44;1.63;;;1.20;;
71814;SDS011;59659;41.520;23.794;2024-01-07T05:29:56;4.60;;;2.30;;
71814;SDS011;59659;41.520;23.794;2024-01-07T05:31:17;1.73;;;1.20;;
71814;SDS011;59659;41.520;23.794;2024-01-07T05:32:29;6.43;;;0.80;;
71814;SDS011;59659;41.520;23.794;2024-01-07T05:33:41;2.65;;;1.02;;
71814;SDS011;59659;41.520;23.794;2024-01-07T05:34:52;0.43;;;0.30;;
71814;SDS011;59659;41.520;23.794;2024-01-07T05:36:04;0.70;;;0.70;;
71814;SDS011;59659;41.520;23.794;2024-01-07T05:37:16;2.38;;;0.50;;
71814;SDS011;59659;41.520;23.794;2024-01-07T05:38:27;2.67;;;0.60;;
71814;SDS011;59659;41.520;23.794;2024-01-07T05:39:43;1.58;;;0.50;;
71814;SDS011;59659;41.520;23.794;2024-01-07T05:40:55;0.50;;;0.50;;
71814;SDS011;59659;41.520;23.794;2024-01-07T05:42:06;1.55;;;0.60;;
71814;SDS011;59659;41.520;23.794;2024-01-07T05:43:18;0.60;;;0.60;;
71814;SDS011;59659;41.520;23.794;2024-01-07T05:44:29;0.35;;;0.35;;
71814;SDS011;59659;41.520;23.794;2024-01-07T05:45:41;1.65;;;0.50;;
71814;SDS011;59659;41.520;23.794;2024-01-07T05:46:52;1.38;;;0.77;;
71814;SDS011;59659;41.520;23.794;2024-01-07T05:48:04;9.38;;;1.70;;
71814;SDS011;59659;41.520;23.794;2024-01-07T05:49:16;8.90;;;3.42;;
71814;SDS011;59659;41.520;23.794;2024-01-07T05:50:27;19.52;;;7.82;;
71814;SDS011;59659;41.520;23.794;2024-01-07T05:51:39;23.20;;;9.63;;
71814;SDS011;59659;41.520;23.794;2024-01-07T05:52:51;23.80;;;9.05;;
71814;SDS011;59659;41.520;23.794;2024-01-07T05:54:03;22.88;;;8.20;;
71814;SDS011;59659;41.520;23.794;2024-01-07T05:55:14;24.95;;;10.43;;
71814;SDS011;59659;41.520;23.794;2024-01-07T05:56:26;24.33;;;12.15;;
71814;SDS011;59659;41.520;23.794;2024-01-07T05:57:38;14.48;;;9.23;;
71814;SDS011;59659;41.520;23.794;2024-01-07T05:58:49;13.50;;;8.30;;
71814;SDS011;59659;41.520;23.794;2024-01-07T06:00:01;5.35;;;2.78;;
71814;SDS011;59659;41.520;23.794;2024-01-07T06:01:18;2.60;;;1.30;;
71814;SDS011;59659;41.520;23.794;2024-01-07T06:02:30;2.75;;;1.17;;
71814;SDS011;59659;41.520;23.794;2024-01-07T06:03:41;1.05;;;0.70;;
71814;SDS011;59659;41.520;23.794;2024-01-07T06:04:53;0.73;;;0.60;;
71814;SDS011;59659;41.520;23.794;2024-01-07T06:06:05;1.20;;;0.88;;
71814;SDS011;59659;41.520;23.794;2024-01-07T06:07:17;0.82;;;0.55;;
71814;SDS011;59659;41.520;23.794;2024-01-07T06:08:28;3.10;;;1.45;;
71814;SDS011;59659;41.520;23.794;2024-01-07T06:09:40;1.83;;;0.80;;
71814;SDS011;59659;41.520;23.794;2024-01-07T06:10:51;1.35;;;0.80;;
71814;SDS011;59659;41.520;23.794;2024-01-07T06:12:03;2.58;;;0.70;;
71814;SDS011;59659;41.520;23.794;2024-01-07T06:13:15;2.45;;;1.20;;
71814;SDS011;59659;41.520;23.794;2024-01-07T06:14:27;2.22;;;1.33;;
71814;SDS011;59659;41.520;23.794;2024-01-07T06:15:38;1.77;;;1.40;;
71814;SDS011;59659;41.520;23.794;2024-01-07T06:16:50;2.35;;;1.20;;
71814;SDS011;59659;41.520;23.794;2024-01-07T06:18:01;8.52;;;4.50;;
71814;SDS011;59659;41.520;23.794;2024-01-07T06:19:13;15.15;;;8.98;;
71814;SDS011;59659;41.520;23.794;2024-01-07T06:20:26;20.63;;;8.48;;
71814;SDS011;59659;41.520;23.794;2024-01-07T06:21:37;67.82;;;29.25;;
71814;SDS011;59659;41.520;23.794;2024-01-07T06:22:49;51.00;;;24.63;;
71814;SDS011;59659;41.520;23.794;2024-01-07T06:24:01;38.63;;;18.77;;
71814;SDS011;59659;41.520;23.794;2024-01-07T06:25:13;40.75;;;19.10;;
71814;SDS011;59659;41.520;23.794;2024-01-07T06:26:25;35.60;;;17.17;;
71814;SDS011;59659;41.520;23.794;2024-01-07T06:27:38;37.13;;;18.75;;
71814;SDS011;59659;41.520;23.794;2024-01-07T06:28:49;36.53;;;18.00;;
71814;SDS011;59659;41.520;23.794;2024-01-07T06:30:01;36.85;;;18.75;;
71814;SDS011;59659;41.520;23.794;2024-01-07T06:31:13;29.67;;;14.77;;
71814;SDS011;59659;41.520;23.794;2024-01-07T06:32:24;32.33;;;16.95;;
71814;SDS011;59659;41.520;23.794;2024-01-07T06:33:36;31.38;;;15.63;;
71814;SDS011;59659;41.520;23.794;2024-01-07T06:34:48;32.42;;;13.82;;
71814;SDS011;59659;41.520;23.794;2024-01-07T06:36:00;31.33;;;14.43;;
71814;SDS011;59659;41.520;23.794;2024-01-07T06:37:12;28.75;;;14.98;;
71814;SDS011;59659;41.520;23.794;2024-01-07T06:38:24;9.18;;;5.22;;
71814;SDS011;59659;41.520;23.794;2024-01-07T06:39:35;7.50;;;4.82;;
71814;SDS011;59659;41.520;23.794;2024-01-07T06:40:47;9.70;;;5.05;;
71814;SDS011;59659;41.520;23.794;2024-01-07T06:41:58;13.75;;;5.45;;
71814;SDS011;59659;41.520;23.794;2024-01-07T06:43:10;12.82;;;8.07;;
71814;SDS011;59659;41.520;23.794;2024-01-07T06:44:21;14.23;;;7.97;;
71814;SDS011;59659;41.520;23.794;2024-01-07T06:45:33;17.55;;;9.60;;
71814;SDS011;59659;41.520;23.794;2024-01-07T06:46:45;13.75;;;9.10;;
71814;SDS011;59659;41.520;23.794;2024-01-07T06:47:56;15.38;;;8.95;;
71814;SDS011;59659;41.520;23.794;2024-01-07T06:49:08;12.88;;;8.57;;
71814;SDS011;59659;41.520;23.794;2024-01-07T06:50:20;15.50;;;8.98;;
71814;SDS011;59659;41.520;23.794;2024-01-07T06:51:32;14.15;;;7.30;;
71814;SDS011;59659;41.520;23.794;2024-01-07T06:52:43;13.27;;;6.65;;
71814;SDS011;59659;41.520;23.794;2024-01-07T06:53:55;16.60;;;7.85;;
71814;SDS011;59659;41.520;23.794;2024-01-07T06:55:06;15.95;;;8.93;;
71814;SDS011;59659;41.520;23.794;2024-01-07T06:56:18;8.15;;;3.92;;
71814;SDS011;59659;41.520;23.794;2024-01-07T06:57:30;5.93;;;2.45;;
71814;SDS011;59659;41.520;23.794;2024-01-07T06:58:42;9.38;;;6.28;;
71814;SDS011;59659;41.520;23.794;2024-01-07T06:59:53;10.60;;;4.95;;
71814;SDS011;59659;41.520;23.794;2024-01-07T07:01:08;8.18;;;5.18;;
71814;SDS011;59659;41.520;23.794;2024-01-07T07:02:19;12.75;;;6.93;;
71814;SDS011;59659;41.520;23.794;2024-01-07T07:03:31;15.52;;;8.15;;